Airfield :
LOGIN :

Register | Disclaimer

   EN    FR    IT 

 










Legend :    VFR   Marginal VFR   IFR   Intensive IFR   Very Intensive IFR
Visi :
Ceiling :
>= 8 km
>= 3000ft
5 to 8 km
1000 to 3000 ft
1500m to 5 km
500 to 1000 ft
800 to 1500m
200 to 500 ft
< 800m
< 200 ft
Symbols :   Thunderstorms  Fog  Heavy snow  Heavy precipitations  Wind > 20 kt
SIGMETs :     Misc.  Thunderstorms  Icing  Turbulence  Mountain Waves  Volcanic Ashes






- Airport Elevation : 276 ft


LYVR - Vršac International

CURRENT METAR :
  • 190430Z AUTO 00000KT CAVOK 21/18 Q1016

EXPIRED METARs :
  • 190400Z AUTO 00000KT CAVOK 19/17 Q1016
  • 190330Z AUTO VRB01KT CAVOK 17/15 Q1016
  • 190300Z AUTO 03003KT 340V110 CAVOK 17/15 Q1016
  • 190230Z AUTO VRB02KT CAVOK 16/15 Q1016
  • 190200Z AUTO 00000KT CAVOK 15/15 Q1016
  • 190130Z AUTO 00000KT CAVOK 15/14 Q1016
  • 190100Z AUTO 00000KT CAVOK 16/15 Q1016
  • 190030Z AUTO VRB01KT CAVOK 16/15 Q1016
  • 190000Z AUTO 02003KT 360V070 CAVOK 17/15 Q1016

TAF TAF LYVR
Valid from the 19 at 00:00 until the 20 at 00:00 UTC


182300Z 1900/1924 12004KT CAVOK TX36/1913Z TN18/1903Z
BECMG 1906/1908 18010KT



MET'MAP, your aeronautical weather chart ! - Copyright ORBIFLY December 2007 - Disclaimer

ORBIFLY MET'MAP TEAM :

Programming & Development : Alexandra Zaïnal
Original concept : Baudouin d'Aumeries
Technical & hardware support : Manuel Goepfert
Assistance : Marc-Olivier Méhu




SOURCES & CREDITS :

   NOAA